createdAt,value
2019-05-15T00:01:31.448Z,17.20
2019-05-15T00:04:09.157Z,17.30
2019-05-15T00:06:42.141Z,17.30
2019-05-15T00:09:18.889Z,17.30
2019-05-15T00:11:51.211Z,17.40
2019-05-15T00:14:24.562Z,17.50
2019-05-15T00:16:58.676Z,17.50
2019-05-15T00:19:31.593Z,18.10
2019-05-15T00:22:04.423Z,19.40
2019-05-15T00:24:38.179Z,20.10
2019-05-15T00:27:11.301Z,20.40
2019-05-15T00:29:45.033Z,20.70
2019-05-15T00:32:18.747Z,21.00
2019-05-15T00:34:52.296Z,21.00
2019-05-15T00:37:30.148Z,21.10
2019-05-15T00:40:08.519Z,21.10
2019-05-15T00:42:44.657Z,21.00
2019-05-15T00:45:18.621Z,21.00
2019-05-15T00:47:51.927Z,21.10
2019-05-15T00:50:24.324Z,21.00
2019-05-15T00:52:58.997Z,21.00
2019-05-15T00:55:31.423Z,20.70
2019-05-15T00:58:08.484Z,20.60
2019-05-15T01:00:45.467Z,20.60
2019-05-15T01:03:18.213Z,20.70
2019-05-15T01:05:51.670Z,21.10
2019-05-15T01:08:24.676Z,21.10
2019-05-15T01:10:58.216Z,21.10
2019-05-15T01:13:30.958Z,20.90
2019-05-15T01:16:04.228Z,20.80
2019-05-15T01:18:38.500Z,20.50
2019-05-15T01:21:10.922Z,20.00
2019-05-15T01:23:43.578Z,19.50
2019-05-15T01:26:18.662Z,19.20
2019-05-15T01:28:51.328Z,18.80
2019-05-15T01:31:23.401Z,18.60
2019-05-15T01:33:58.249Z,18.30
2019-05-15T01:36:30.533Z,18.20
2019-05-15T01:39:03.247Z,18.10
2019-05-15T01:41:35.815Z,18.00
2019-05-15T01:44:08.945Z,17.90
2019-05-15T01:46:41.128Z,17.80
2019-05-15T01:49:14.235Z,17.80
2019-05-15T01:51:48.547Z,17.70
2019-05-15T01:54:21.638Z,17.70
2019-05-15T01:56:54.744Z,17.70
2019-05-15T01:59:29.155Z,17.70
2019-05-15T02:02:02.338Z,17.80
2019-05-15T02:04:34.952Z,17.70
2019-05-15T02:07:08.305Z,17.70
2019-05-15T02:09:40.822Z,17.60
2019-05-15T02:12:13.292Z,17.40
2019-05-15T02:14:48.567Z,17.40
2019-05-15T02:17:20.361Z,17.50
2019-05-15T02:19:53.416Z,17.40
2019-05-15T02:22:28.188Z,17.30
2019-05-15T02:25:00.839Z,17.20
2019-05-15T02:27:32.856Z,17.20
2019-05-15T02:30:18.070Z,17.10
2019-05-15T02:32:40.963Z,17.20
2019-05-15T02:35:12.977Z,17.20
2019-05-15T02:37:48.743Z,17.10
2019-05-15T02:40:31.479Z,17.10
2019-05-15T02:43:03.377Z,17.10
2019-05-15T02:45:37.901Z,17.10
2019-05-15T02:48:09.355Z,17.10
2019-05-15T02:50:41.743Z,17.10
2019-05-15T02:53:14.148Z,17.00
2019-05-15T02:55:49.484Z,17.00
2019-05-15T02:58:22.302Z,17.00
2019-05-15T03:00:58.894Z,16.90
2019-05-15T03:03:30.028Z,16.90
2019-05-15T03:06:02.820Z,16.80
2019-05-15T03:08:34.814Z,16.80
2019-05-15T03:11:09.511Z,16.80
2019-05-15T03:13:40.484Z,16.80
2019-05-15T03:16:12.602Z,16.80
2019-05-15T03:18:44.246Z,16.90
2019-05-15T03:21:18.788Z,17.10
2019-05-15T03:23:51.308Z,17.20
2019-05-15T03:26:23.675Z,17.10
2019-05-15T03:28:58.983Z,17.00
2019-05-15T03:31:50.360Z,17.00
2019-05-15T03:34:04.340Z,17.10
2019-05-15T03:36:36.509Z,17.10
2019-05-15T03:39:09.707Z,17.30
2019-05-15T03:41:42.739Z,17.40
2019-05-15T03:44:14.777Z,17.50
2019-05-15T03:46:49.204Z,17.60
2019-05-15T03:49:21.289Z,17.60
2019-05-15T03:51:53.967Z,17.60
2019-05-15T03:54:29.170Z,17.70
2019-05-15T03:57:00.287Z,17.80
2019-05-15T03:59:32.189Z,17.80
2019-05-15T04:02:04.153Z,17.80
2019-05-15T04:04:38.866Z,17.90
2019-05-15T04:07:10.516Z,17.90
2019-05-15T04:09:42.432Z,17.90
2019-05-15T04:12:15.460Z,17.90
2019-05-15T04:14:50.103Z,17.90
2019-05-15T04:17:21.671Z,18.00
2019-05-15T04:19:54.598Z,17.90
2019-05-15T04:22:29.122Z,18.00
2019-05-15T04:25:02.281Z,18.20
2019-05-15T04:27:38.798Z,18.30
2019-05-15T04:30:11.235Z,18.50
2019-05-15T04:32:44.066Z,18.60
2019-05-15T04:35:19.794Z,18.60
2019-05-15T04:37:52.809Z,18.70
2019-05-15T04:40:25.001Z,18.80
2019-05-15T04:42:59.303Z,19.10
2019-05-15T04:45:34.897Z,19.20
2019-05-15T04:48:09.867Z,19.40
2019-05-15T04:50:40.281Z,19.60
2019-05-15T04:53:13.194Z,19.70
2019-05-15T04:55:48.850Z,19.80
2019-05-15T04:58:20.923Z,19.90
2019-05-15T05:00:54.615Z,20.00
2019-05-15T05:03:29.249Z,20.10
2019-05-15T05:06:02.020Z,20.20
2019-05-15T05:08:34.063Z,20.40
2019-05-15T05:11:09.440Z,20.60
2019-05-15T05:13:41.849Z,20.50
2019-05-15T05:16:13.883Z,20.30
2019-05-15T05:18:48.825Z,20.60
2019-05-15T05:21:19.503Z,21.10
2019-05-15T05:23:52.543Z,21.20
2019-05-15T05:26:25.087Z,21.30
2019-05-15T05:29:01.359Z,21.70
2019-05-15T05:31:31.265Z,21.60
2019-05-15T05:34:03.408Z,21.40
2019-05-15T05:36:38.617Z,21.20
2019-05-15T05:39:13.590Z,21.30
2019-05-15T05:41:46.075Z,21.20
2019-05-15T05:44:18.874Z,21.00
2019-05-15T05:46:51.087Z,21.10
2019-05-15T05:49:23.207Z,21.00
2019-05-15T05:51:55.263Z,21.00
2019-05-15T05:54:28.878Z,21.10
2019-05-15T05:57:00.895Z,20.90
2019-05-15T05:59:33.245Z,20.90
2019-05-15T06:02:08.037Z,20.90
2019-05-15T06:04:44.544Z,20.90
2019-05-15T06:07:18.504Z,20.70
2019-05-15T06:09:55.111Z,20.70
2019-05-15T06:12:28.255Z,20.60
2019-05-15T06:15:02.517Z,20.70
2019-05-15T06:17:36.092Z,21.00
2019-05-15T06:20:08.478Z,21.10
2019-05-15T06:22:41.215Z,21.60
2019-05-15T06:25:14.409Z,22.00
2019-05-15T06:27:48.138Z,22.30
2019-05-15T06:30:26.695Z,22.60
2019-05-15T06:33:05.738Z,22.70
2019-05-15T06:35:31.420Z,22.50
2019-05-15T06:38:04.068Z,22.60
2019-05-15T06:40:35.991Z,22.60
2019-05-15T06:43:08.744Z,22.80
2019-05-15T06:45:45.432Z,22.90
2019-05-15T06:48:18.779Z,22.90
2019-05-15T06:50:51.102Z,22.70
2019-05-15T06:53:23.867Z,22.90
2019-05-15T06:55:58.297Z,23.00
2019-05-15T06:58:30.240Z,22.90
2019-05-15T07:01:03.427Z,22.90
2019-05-15T07:03:35.845Z,23.00
2019-05-15T07:06:09.572Z,22.70
2019-05-15T07:08:43.968Z,22.80
2019-05-15T07:11:19.042Z,22.90
2019-05-15T07:13:51.353Z,22.90
2019-05-15T07:16:23.962Z,22.70
2019-05-15T07:18:58.918Z,22.50
2019-05-15T07:21:31.801Z,22.60
2019-05-15T07:24:04.790Z,22.70
2019-05-15T07:26:39.425Z,22.80
2019-05-15T07:29:13.371Z,23.10
2019-05-15T07:31:47.802Z,23.30
2019-05-15T07:34:20.777Z,23.50
2019-05-15T07:36:53.729Z,23.50
2019-05-15T07:39:28.796Z,23.60
2019-05-15T07:42:03.175Z,23.50
2019-05-15T07:44:38.606Z,23.60
2019-05-15T07:47:09.627Z,23.80
2019-05-15T07:49:43.490Z,23.80
2019-05-15T07:52:19.419Z,23.80
2019-05-15T07:54:51.652Z,24.00
2019-05-15T07:57:24.757Z,24.00
2019-05-15T07:59:58.770Z,24.20
2019-05-15T08:02:31.789Z,24.50
2019-05-15T08:05:05.155Z,24.70
2019-05-15T08:07:38.958Z,24.60
2019-05-15T08:10:13.199Z,24.60
2019-05-15T08:12:49.247Z,24.80
2019-05-15T08:15:21.507Z,25.00
2019-05-15T08:18:07.707Z,25.60
2019-05-15T08:20:28.981Z,26.00
2019-05-15T08:23:02.215Z,26.40
2019-05-15T08:25:38.774Z,25.90
2019-05-15T08:28:12.387Z,25.90
2019-05-15T08:30:49.028Z,26.10
2019-05-15T08:33:21.860Z,26.10
2019-05-15T08:35:58.857Z,26.30
2019-05-15T08:38:31.971Z,26.40
2019-05-15T08:41:05.480Z,26.50
2019-05-15T08:43:38.762Z,26.60
2019-05-15T08:46:12.993Z,26.40
2019-05-15T08:48:45.497Z,26.50
2019-05-15T08:51:20.697Z,26.70
2019-05-15T08:53:53.567Z,27.00
2019-05-15T08:56:28.696Z,27.30
2019-05-15T08:59:01.511Z,27.10
2019-05-15T09:01:34.218Z,27.30
2019-05-15T09:04:08.918Z,27.40
2019-05-15T09:06:42.305Z,27.70
2019-05-15T09:09:18.076Z,27.80
2019-05-15T09:11:53.540Z,28.20
2019-05-15T09:14:28.486Z,28.30
2019-05-15T09:17:01.565Z,28.20
2019-05-15T09:19:38.797Z,28.10
2019-05-15T09:22:14.459Z,28.10
2019-05-15T09:24:49.052Z,28.10
2019-05-15T09:27:22.665Z,28.20
2019-05-15T09:29:55.021Z,27.90
2019-05-15T09:32:28.526Z,28.60
2019-05-15T09:35:01.300Z,28.40
2019-05-15T09:37:34.559Z,28.40
2019-05-15T09:40:08.819Z,28.60
2019-05-15T09:42:43.231Z,28.60
2019-05-15T09:45:17.868Z,28.10
2019-05-15T09:47:53.055Z,27.70
2019-05-15T09:50:25.177Z,27.70
2019-05-15T09:52:59.037Z,28.00
2019-05-15T09:55:33.313Z,27.90
2019-05-15T09:58:08.294Z,27.70
2019-05-15T10:00:41.905Z,27.60
2019-05-15T10:03:14.925Z,27.60
2019-05-15T10:05:48.273Z,27.40
2019-05-15T10:08:21.733Z,27.30
2019-05-15T10:10:59.328Z,27.40
2019-05-15T10:13:33.220Z,27.40
2019-05-15T10:16:08.582Z,27.30
2019-05-15T10:18:42.240Z,27.30
2019-05-15T10:21:18.701Z,27.40
2019-05-15T10:23:51.584Z,27.40
2019-05-15T10:26:28.400Z,27.20
2019-05-15T10:29:02.232Z,27.20
2019-05-15T10:31:35.600Z,27.10
2019-05-15T10:34:09.281Z,27.20
2019-05-15T10:36:43.239Z,27.10
2019-05-15T10:39:18.173Z,27.00
2019-05-15T10:41:52.212Z,27.10
2019-05-15T10:44:25.664Z,27.20
2019-05-15T10:46:59.365Z,27.30
2019-05-15T10:49:32.602Z,27.40
2019-05-15T10:52:04.524Z,27.50
2019-05-15T10:54:38.164Z,27.50
2019-05-15T10:57:12.675Z,27.60
2019-05-15T10:59:47.780Z,27.60
2019-05-15T11:02:21.436Z,27.70
2019-05-15T11:04:54.161Z,27.60
2019-05-15T11:07:28.480Z,27.70
2019-05-15T11:10:01.987Z,27.90
2019-05-15T11:12:36.306Z,27.80
2019-05-15T11:15:11.314Z,27.80
2019-05-15T11:17:48.992Z,28.20
2019-05-15T11:20:30.499Z,28.40
2019-05-15T11:23:02.484Z,28.30
2019-05-15T11:25:37.776Z,28.20
2019-05-15T11:28:10.723Z,28.40
2019-05-15T11:30:48.958Z,28.50
2019-05-15T11:33:22.269Z,28.60
2019-05-15T11:36:02.080Z,29.00
2019-05-15T11:38:29.917Z,29.00
2019-05-15T11:41:04.630Z,29.10
2019-05-15T11:43:38.497Z,28.90
2019-05-15T11:46:10.876Z,28.70
2019-05-15T11:48:44.829Z,28.60
2019-05-15T11:51:18.512Z,28.30
2019-05-15T11:53:52.041Z,28.20
2019-05-15T11:56:24.432Z,28.30
2019-05-15T11:58:58.331Z,28.90
2019-05-15T12:01:30.535Z,28.90
2019-05-15T12:04:03.691Z,28.70
2019-05-15T12:06:41.474Z,28.50
2019-05-15T12:09:18.765Z,28.40
2019-05-15T12:11:53.085Z,28.80
2019-05-15T12:14:29.686Z,28.90
2019-05-15T12:17:10.423Z,29.00
2019-05-15T12:19:39.117Z,29.40
2019-05-15T12:22:12.235Z,29.60
2019-05-15T12:24:45.531Z,29.70
2019-05-15T12:27:18.626Z,29.90
2019-05-15T12:29:55.520Z,29.90
2019-05-15T12:32:35.532Z,29.90
2019-05-15T12:35:06.969Z,29.60
2019-05-15T12:37:41.089Z,29.60
2019-05-15T13:00:57.901Z,30.60
2019-05-15T13:03:31.108Z,31.00
2019-05-15T13:06:07.926Z,31.20
2019-05-15T13:08:41.510Z,30.80
2019-05-15T13:11:18.099Z,30.50
2019-05-15T13:13:51.975Z,30.60
2019-05-15T13:16:24.383Z,31.00
2019-05-15T13:18:58.956Z,31.20
2019-05-15T13:21:32.649Z,31.50
2019-05-15T13:24:07.975Z,31.50
2019-05-15T13:26:41.090Z,31.40
2019-05-15T13:29:14.720Z,30.70
2019-05-15T13:31:50.673Z,30.20
2019-05-15T13:34:24.992Z,30.30
2019-05-15T13:36:59.215Z,30.00
2019-05-15T13:39:32.004Z,29.90
2019-05-15T13:42:05.633Z,29.70
2019-05-15T13:44:38.713Z,29.60
2019-05-15T13:47:10.787Z,29.80
2019-05-15T13:49:44.016Z,30.10
2019-05-15T13:52:18.807Z,30.30
2019-05-15T13:54:52.927Z,30.30
2019-05-15T13:57:29.369Z,30.00
2019-05-15T14:00:01.971Z,29.80
2019-05-15T14:02:34.823Z,29.60
2019-05-15T14:05:09.437Z,29.60
2019-05-15T14:07:49.882Z,29.90
2019-05-15T14:10:18.928Z,30.00
2019-05-15T14:12:51.679Z,29.90
2019-05-15T14:15:24.326Z,29.60
2019-05-15T14:17:57.830Z,29.70
2019-05-15T14:20:34.981Z,29.70
2019-05-15T14:23:09.574Z,29.70
2019-05-15T14:25:43.452Z,29.70
2019-05-15T14:28:28.398Z,29.40
2019-05-15T14:31:02.987Z,29.40
2019-05-15T14:33:40.699Z,29.30
2019-05-15T14:36:13.279Z,29.60
2019-05-15T14:38:48.488Z,29.40
2019-05-15T14:41:22.240Z,29.20
2019-05-15T14:43:57.861Z,28.70
2019-05-15T14:46:30.898Z,28.80
2019-05-15T14:49:03.019Z,29.00
2019-05-15T14:51:39.121Z,29.20
2019-05-15T14:54:13.429Z,29.20
2019-05-15T14:56:48.706Z,29.10
2019-05-15T14:59:22.411Z,29.30
2019-05-15T15:01:55.292Z,29.40
2019-05-15T15:04:29.129Z,29.30
2019-05-15T15:07:12.924Z,29.10
2019-05-15T15:09:47.811Z,29.10
2019-05-15T15:12:21.279Z,29.20
2019-05-15T15:14:54.054Z,29.40
2019-05-15T15:17:29.248Z,29.30
2019-05-15T15:20:03.239Z,29.10
2019-05-15T15:22:39.716Z,28.90
2019-05-15T15:25:14.079Z,28.70
2019-05-15T15:27:48.002Z,28.70
2019-05-15T15:30:21.223Z,28.90
2019-05-15T15:32:54.071Z,28.60
2019-05-15T15:35:30.819Z,28.60
2019-05-15T15:38:04.253Z,28.60
2019-05-15T15:40:38.581Z,28.50
2019-05-15T15:43:11.216Z,28.60
2019-05-15T15:45:44.643Z,28.60
2019-05-15T15:48:19.257Z,28.50
2019-05-15T15:50:51.968Z,28.50
2019-05-15T15:53:25.273Z,28.60
2019-05-15T15:55:59.568Z,28.60
2019-05-15T15:58:33.696Z,28.50
2019-05-15T16:01:09.040Z,28.40
2019-05-15T16:03:42.759Z,28.20
2019-05-15T16:06:18.730Z,28.00
2019-05-15T16:08:55.580Z,27.80
2019-05-15T16:11:29.453Z,27.70
2019-05-15T16:14:04.547Z,27.50
2019-05-15T16:16:38.145Z,27.30
2019-05-15T16:19:12.600Z,27.20
2019-05-15T16:21:45.244Z,27.00
2019-05-15T16:24:21.354Z,26.80
2019-05-15T16:26:52.941Z,26.70
2019-05-15T16:29:28.339Z,26.40
2019-05-15T16:32:02.678Z,26.30
2019-05-15T16:34:35.722Z,26.20
2019-05-15T16:37:09.003Z,26.20
2019-05-15T16:39:43.141Z,25.90
2019-05-15T16:42:18.044Z,25.90
2019-05-15T16:44:51.712Z,25.90
2019-05-15T16:47:24.536Z,25.80
2019-05-15T16:49:57.965Z,25.60
2019-05-15T16:52:32.777Z,25.30
2019-05-15T16:55:09.258Z,25.30
2019-05-15T16:57:41.823Z,25.20
2019-05-15T17:00:14.767Z,25.10
2019-05-15T17:02:48.763Z,24.80
2019-05-15T17:05:22.500Z,24.80
2019-05-15T17:07:58.166Z,24.90
2019-05-15T17:10:29.158Z,24.90
2019-05-15T17:13:01.641Z,24.90
2019-05-15T17:15:35.008Z,24.70
2019-05-15T17:18:08.967Z,24.50
2019-05-15T17:20:44.290Z,24.40
2019-05-15T17:23:18.913Z,24.30
2019-05-15T17:25:52.988Z,24.20
2019-05-15T17:28:24.985Z,24.20
2019-05-15T17:30:58.505Z,24.20
2019-05-15T17:33:33.228Z,24.20
2019-05-15T17:36:07.310Z,24.20
2019-05-15T17:38:40.837Z,24.10
2019-05-15T17:41:15.647Z,24.00
2019-05-15T17:43:49.259Z,23.90
2019-05-15T17:46:22.593Z,23.80
2019-05-15T17:48:59.264Z,23.80
2019-05-15T17:51:30.320Z,23.80
2019-05-15T17:54:03.967Z,23.80
2019-05-15T17:56:40.769Z,23.80
2019-05-15T17:59:09.588Z,23.80
2019-05-15T18:01:43.105Z,23.90
2019-05-15T18:04:18.937Z,24.00
2019-05-15T18:06:51.616Z,23.90
2019-05-15T18:09:28.052Z,23.90
2019-05-15T18:12:01.646Z,23.80
2019-05-15T18:14:34.003Z,23.60
2019-05-15T18:17:08.698Z,23.50
2019-05-15T18:19:42.636Z,23.50
2019-05-15T18:22:14.963Z,23.40
2019-05-15T18:24:49.862Z,23.50
2019-05-15T18:27:25.527Z,23.60
2019-05-15T18:29:58.566Z,23.70
2019-05-15T18:32:33.474Z,23.80
2019-05-15T18:35:09.847Z,23.60
2019-05-15T18:37:44.512Z,23.40
2019-05-15T18:40:19.020Z,23.30
2019-05-15T18:42:52.253Z,23.20
2019-05-15T18:45:25.658Z,23.20
2019-05-15T18:47:59.425Z,23.20
2019-05-15T18:50:33.725Z,23.20
2019-05-15T18:53:17.349Z,23.00
2019-05-15T18:58:48.664Z,22.90
2019-05-15T19:01:24.320Z,23.00
2019-05-15T19:03:58.583Z,23.10
2019-05-15T19:06:32.363Z,23.00
2019-05-15T19:09:08.246Z,22.80
2019-05-15T19:11:45.854Z,22.80
2019-05-15T19:14:19.398Z,22.90
2019-05-15T19:16:52.647Z,22.80
2019-05-15T19:19:24.039Z,22.70
2019-05-15T19:24:29.504Z,22.60
2019-05-15T19:27:03.084Z,22.70
2019-05-15T19:29:37.803Z,22.60
2019-05-15T19:32:11.423Z,22.40
2019-05-15T19:34:44.705Z,22.30
2019-05-15T19:37:18.502Z,22.40
2019-05-15T19:39:51.856Z,22.30
2019-05-15T19:42:25.249Z,22.30
2019-05-15T19:44:59.024Z,22.20
2019-05-15T19:47:32.086Z,22.10
2019-05-15T19:50:08.297Z,22.10
2019-05-15T19:52:41.200Z,22.10
2019-05-15T19:55:14.466Z,22.00
2019-05-15T19:57:46.900Z,22.00
2019-05-15T20:00:21.359Z,22.00
2019-05-15T20:02:54.948Z,21.90
2019-05-15T20:05:31.210Z,21.80
2019-05-15T20:08:04.772Z,21.80
2019-05-15T20:10:39.907Z,21.80
2019-05-15T20:13:13.663Z,21.70
2019-05-15T20:15:48.580Z,21.70
2019-05-15T20:18:22.782Z,21.70
2019-05-15T20:20:58.337Z,21.70
2019-05-15T20:23:30.952Z,21.60
2019-05-15T20:26:05.019Z,21.70
2019-05-15T20:28:39.369Z,21.70
2019-05-15T20:31:13.254Z,21.70
2019-05-15T20:33:48.419Z,21.70
2019-05-15T20:36:21.512Z,21.70
2019-05-15T20:38:53.744Z,21.70
2019-05-15T20:41:27.352Z,21.80
2019-05-15T20:44:00.159Z,21.90
2019-05-15T20:46:34.175Z,21.80
2019-05-15T20:49:08.532Z,21.70
2019-05-15T20:51:42.921Z,21.60
2019-05-15T20:54:15.525Z,21.50
2019-05-15T20:59:18.302Z,21.40
2019-05-15T21:01:54.191Z,21.60
2019-05-15T21:04:29.658Z,21.80
2019-05-15T21:07:02.649Z,21.80
2019-05-15T21:09:35.421Z,21.70
2019-05-15T21:12:09.881Z,21.40
2019-05-15T21:14:43.291Z,21.10
2019-05-15T21:17:19.943Z,21.00
2019-05-15T21:19:53.933Z,20.90
2019-05-15T21:22:28.719Z,20.70
2019-05-15T21:25:01.848Z,20.70
2019-05-15T21:27:41.210Z,20.60
2019-05-15T21:30:12.708Z,20.60
2019-05-15T21:32:45.917Z,20.50
2019-05-15T21:35:22.901Z,20.60
2019-05-15T21:37:57.789Z,20.60
2019-05-15T21:40:32.325Z,20.40
2019-05-15T21:43:08.791Z,20.30
2019-05-15T21:45:42.368Z,20.20
2019-05-15T21:48:18.463Z,20.10
2019-05-15T21:50:53.615Z,20.00
2019-05-15T21:53:28.499Z,19.90
2019-05-15T21:56:01.861Z,19.90
2019-05-15T21:58:37.583Z,19.90
2019-05-15T22:01:11.148Z,19.80
2019-05-15T22:03:43.043Z,19.80
2019-05-15T22:06:18.495Z,19.80
2019-05-15T22:08:51.448Z,19.70
2019-05-15T22:11:24.035Z,19.50
2019-05-15T22:13:59.787Z,19.50
2019-05-15T22:16:36.255Z,19.50
2019-05-15T22:19:11.108Z,19.50
2019-05-15T22:21:45.815Z,19.50
2019-05-15T22:24:18.655Z,19.60
2019-05-15T22:26:52.259Z,19.60
2019-05-15T22:29:24.730Z,19.70
2019-05-15T22:31:59.042Z,19.80
2019-05-15T22:34:33.252Z,19.70
2019-05-15T22:37:06.950Z,19.80
2019-05-15T22:39:42.124Z,19.80
2019-05-15T22:42:18.160Z,19.80
2019-05-15T22:45:00.776Z,19.80
2019-05-15T22:47:33.010Z,19.80
2019-05-15T22:50:08.413Z,19.80
2019-05-15T22:52:41.976Z,19.80
2019-05-15T22:55:14.346Z,19.70
2019-05-15T22:57:48.133Z,19.60
2019-05-15T23:00:22.061Z,19.60
2019-05-15T23:02:54.766Z,19.70
2019-05-15T23:05:29.368Z,19.60
2019-05-15T23:08:01.673Z,19.50
2019-05-15T23:10:34.525Z,19.50
2019-05-15T23:13:08.219Z,19.60
2019-05-15T23:15:43.251Z,19.60
2019-05-15T23:18:17.912Z,19.70
2019-05-15T23:20:51.179Z,19.60
2019-05-15T23:23:24.783Z,19.60
2019-05-15T23:25:58.300Z,19.60
2019-05-15T23:28:31.657Z,19.70
2019-05-15T23:31:05.526Z,19.60
2019-05-15T23:33:40.012Z,19.60
2019-05-15T23:36:13.183Z,19.60
2019-05-15T23:38:48.039Z,19.70
2019-05-15T23:41:19.919Z,19.70
2019-05-15T23:43:52.369Z,19.70
2019-05-15T23:46:25.090Z,19.80
2019-05-15T23:48:58.855Z,19.80
2019-05-15T23:51:32.495Z,19.90
2019-05-15T23:54:04.481Z,19.90
2019-05-15T23:56:39.014Z,19.90
2019-05-15T23:59:11.095Z,19.90
